sensor_id;sensor_type;location;lat;lon;timestamp;temperature;humidity
480;DHT22;226;48.606;9.096;2023-02-28T00:01:08;-1.30;9.20
480;DHT22;226;48.606;9.096;2023-02-28T00:03:36;-1.30;9.20
480;DHT22;226;48.606;9.096;2023-02-28T00:06:09;-1.40;8.90
480;DHT22;226;48.606;9.096;2023-02-28T00:08:37;-1.30;9.30
480;DHT22;226;48.606;9.096;2023-02-28T00:11:08;-1.30;9.30
480;DHT22;226;48.606;9.096;2023-02-28T00:13:38;-1.30;9.30
480;DHT22;226;48.606;9.096;2023-02-28T00:16:08;-1.40;9.30
480;DHT22;226;48.606;9.096;2023-02-28T00:18:37;-1.50;9.40
480;DHT22;226;48.606;9.096;2023-02-28T00:21:07;-1.40;9.60
480;DHT22;226;48.606;9.096;2023-02-28T00:23:35;-1.40;9.60
480;DHT22;226;48.606;9.096;2023-02-28T00:26:04;-1.40;10.10
480;DHT22;226;48.606;9.096;2023-02-28T00:28:32;-1.40;9.90
480;DHT22;226;48.606;9.096;2023-02-28T00:31:00;-1.40;9.80
480;DHT22;226;48.606;9.096;2023-02-28T00:33:29;-1.40;10.20
480;DHT22;226;48.606;9.096;2023-02-28T00:36:09;-1.40;10.30
480;DHT22;226;48.606;9.096;2023-02-28T00:38:39;-1.40;10.30
480;DHT22;226;48.606;9.096;2023-02-28T00:41:08;-1.50;10.10
480;DHT22;226;48.606;9.096;2023-02-28T00:43:38;-1.40;10.70
480;DHT22;226;48.606;9.096;2023-02-28T00:46:07;-1.60;10.60
480;DHT22;226;48.606;9.096;2023-02-28T00:48:36;-1.60;10.90
480;DHT22;226;48.606;9.096;2023-02-28T00:51:05;-1.60;11.00
480;DHT22;226;48.606;9.096;2023-02-28T00:53:34;-1.60;11.10
480;DHT22;226;48.606;9.096;2023-02-28T00:56:03;-1.50;10.90
480;DHT22;226;48.606;9.096;2023-02-28T00:58:31;-1.60;10.80
480;DHT22;226;48.606;9.096;2023-02-28T01:00:59;-1.60;11.10
480;DHT22;226;48.606;9.096;2023-02-28T01:03:27;-1.60;11.20
480;DHT22;226;48.606;9.096;2023-02-28T01:05:55;-1.60;11.30
480;DHT22;226;48.606;9.096;2023-02-28T01:08:24;-1.60;11.20
480;DHT22;226;48.606;9.096;2023-02-28T01:10:54;-1.60;11.30
480;DHT22;226;48.606;9.096;2023-02-28T01:13:23;-1.60;11.60
480;DHT22;226;48.606;9.096;2023-02-28T01:15:55;-1.60;11.60
480;DHT22;226;48.606;9.096;2023-02-28T01:18:23;-1.60;11.50
480;DHT22;226;48.606;9.096;2023-02-28T01:20:52;-1.60;11.60
480;DHT22;226;48.606;9.096;2023-02-28T01:23:21;-1.60;11.40
480;DHT22;226;48.606;9.096;2023-02-28T01:25:50;-1.60;12.10
480;DHT22;226;48.606;9.096;2023-02-28T01:28:20;-1.70;12.20
480;DHT22;226;48.606;9.096;2023-02-28T01:30:48;-1.70;11.90
480;DHT22;226;48.606;9.096;2023-02-28T01:33:17;-1.70;11.90
480;DHT22;226;48.606;9.096;2023-02-28T01:35:45;-1.70;12.10
480;DHT22;226;48.606;9.096;2023-02-28T01:38:13;-1.70;12.10
480;DHT22;226;48.606;9.096;2023-02-28T01:40:49;-1.70;12.00
480;DHT22;226;48.606;9.096;2023-02-28T01:43:22;-1.70;12.10
480;DHT22;226;48.606;9.096;2023-02-28T01:45:51;-1.70;12.10
480;DHT22;226;48.606;9.096;2023-02-28T01:48:20;-1.70;12.30
480;DHT22;226;48.606;9.096;2023-02-28T01:50:49;-1.90;12.40
480;DHT22;226;48.606;9.096;2023-02-28T01:53:21;-1.80;12.60
480;DHT22;226;48.606;9.096;2023-02-28T01:55:52;-1.80;13.00
480;DHT22;226;48.606;9.096;2023-02-28T01:58:23;-1.90;13.20
480;DHT22;226;48.606;9.096;2023-02-28T02:00:51;-1.80;13.30
480;DHT22;226;48.606;9.096;2023-02-28T02:03:20;-1.90;13.30
480;DHT22;226;48.606;9.096;2023-02-28T02:05:48;-1.90;13.20
480;DHT22;226;48.606;9.096;2023-02-28T02:08:19;-1.80;13.90
480;DHT22;226;48.606;9.096;2023-02-28T02:10:50;-1.80;13.30
480;DHT22;226;48.606;9.096;2023-02-28T02:13:30;-1.80;13.60
480;DHT22;226;48.606;9.096;2023-02-28T02:16:11;-1.80;13.50
480;DHT22;226;48.606;9.096;2023-02-28T02:18:47;-1.80;13.70
480;DHT22;226;48.606;9.096;2023-02-28T02:21:54;-1.80;14.70
480;DHT22;226;48.606;9.096;2023-02-28T02:24:46;-1.80;14.20
480;DHT22;226;48.606;9.096;2023-02-28T02:27:38;-1.80;14.50
480;DHT22;226;48.606;9.096;2023-02-28T02:30:29;-1.90;14.90
480;DHT22;226;48.606;9.096;2023-02-28T02:36:21;-1.80;14.90
480;DHT22;226;48.606;9.096;2023-02-28T02:38:54;-1.80;15.10
480;DHT22;226;48.606;9.096;2023-02-28T02:41:27;-1.80;15.00
480;DHT22;226;48.606;9.096;2023-02-28T02:44:01;-1.70;15.20
480;DHT22;226;48.606;9.096;2023-02-28T02:46:33;-1.60;15.30
480;DHT22;226;48.606;9.096;2023-02-28T02:49:05;-1.60;15.00
480;DHT22;226;48.606;9.096;2023-02-28T02:51:35;-1.60;15.10
480;DHT22;226;48.606;9.096;2023-02-28T02:54:07;-1.70;15.30
480;DHT22;226;48.606;9.096;2023-02-28T02:56:36;-1.60;15.40
480;DHT22;226;48.606;9.096;2023-02-28T02:59:09;-1.70;15.40
480;DHT22;226;48.606;9.096;2023-02-28T03:01:40;-0.80;16.00
480;DHT22;226;48.606;9.096;2023-02-28T03:04:11;-1.70;15.60
480;DHT22;226;48.606;9.096;2023-02-28T03:06:41;-1.60;15.80
480;DHT22;226;48.606;9.096;2023-02-28T03:09:09;-1.60;15.90
480;DHT22;226;48.606;9.096;2023-02-28T03:11:38;-1.60;15.60
480;DHT22;226;48.606;9.096;2023-02-28T03:14:17;-1.80;15.50
480;DHT22;226;48.606;9.096;2023-02-28T03:17:12;-1.70;15.80
480;DHT22;226;48.606;9.096;2023-02-28T03:20:01;-1.60;16.00
480;DHT22;226;48.606;9.096;2023-02-28T03:22:52;-1.60;16.10
480;DHT22;226;48.606;9.096;2023-02-28T03:25:31;-1.50;16.10
480;DHT22;226;48.606;9.096;2023-02-28T03:28:04;-0.80;16.60
480;DHT22;226;48.606;9.096;2023-02-28T03:30:38;-1.50;16.00
480;DHT22;226;48.606;9.096;2023-02-28T03:33:10;-1.50;16.30
480;DHT22;226;48.606;9.096;2023-02-28T03:35:43;-1.60;16.40
480;DHT22;226;48.606;9.096;2023-02-28T03:38:18;-1.40;26.50
480;DHT22;226;48.606;9.096;2023-02-28T03:40:50;-1.50;20.30
480;DHT22;226;48.606;9.096;2023-02-28T03:43:23;-1.40;20.30
480;DHT22;226;48.606;9.096;2023-02-28T03:45:55;-1.50;17.70
480;DHT22;226;48.606;9.096;2023-02-28T03:48:27;-1.40;19.80
480;DHT22;226;48.606;9.096;2023-02-28T03:51:00;-1.40;17.60
480;DHT22;226;48.606;9.096;2023-02-28T03:53:33;-1.40;16.90
480;DHT22;226;48.606;9.096;2023-02-28T03:56:06;-1.40;17.10
480;DHT22;226;48.606;9.096;2023-02-28T03:58:41;-1.40;17.70
480;DHT22;226;48.606;9.096;2023-02-28T04:01:15;-1.40;17.40
480;DHT22;226;48.606;9.096;2023-02-28T04:03:44;-1.30;17.50
480;DHT22;226;48.606;9.096;2023-02-28T04:06:15;-1.30;17.00
480;DHT22;226;48.606;9.096;2023-02-28T04:08:46;-1.30;17.70
480;DHT22;226;48.606;9.096;2023-02-28T04:11:20;-1.30;17.60
480;DHT22;226;48.606;9.096;2023-02-28T04:13:48;-1.30;17.50
480;DHT22;226;48.606;9.096;2023-02-28T04:16:17;-1.20;17.50
480;DHT22;226;48.606;9.096;2023-02-28T04:19:01;-1.20;17.90
480;DHT22;226;48.606;9.096;2023-02-28T04:21:31;-1.20;17.70
480;DHT22;226;48.606;9.096;2023-02-28T04:24:02;-1.10;18.00
480;DHT22;226;48.606;9.096;2023-02-28T04:26:30;-1.10;17.80
480;DHT22;226;48.606;9.096;2023-02-28T04:28:59;-1.20;17.90
480;DHT22;226;48.606;9.096;2023-02-28T04:31:27;-1.20;17.90
480;DHT22;226;48.606;9.096;2023-02-28T04:33:56;-1.20;18.50
480;DHT22;226;48.606;9.096;2023-02-28T04:36:24;-1.30;19.20
480;DHT22;226;48.606;9.096;2023-02-28T04:38:52;-1.30;18.90
480;DHT22;226;48.606;9.096;2023-02-28T04:41:22;-1.20;19.00
480;DHT22;226;48.606;9.096;2023-02-28T04:43:51;-1.20;18.40
480;DHT22;226;48.606;9.096;2023-02-28T04:46:19;-1.20;18.40
480;DHT22;226;48.606;9.096;2023-02-28T04:48:48;-1.30;18.50
480;DHT22;226;48.606;9.096;2023-02-28T04:51:18;-1.30;18.60
480;DHT22;226;48.606;9.096;2023-02-28T04:53:46;-1.20;18.70
480;DHT22;226;48.606;9.096;2023-02-28T04:56:16;-1.20;19.10
480;DHT22;226;48.606;9.096;2023-02-28T04:58:46;-1.30;18.80
480;DHT22;226;48.606;9.096;2023-02-28T05:01:21;-1.10;19.20
480;DHT22;226;48.606;9.096;2023-02-28T05:03:50;-1.10;19.10
480;DHT22;226;48.606;9.096;2023-02-28T05:06:19;-1.10;18.90
480;DHT22;226;48.606;9.096;2023-02-28T05:08:48;-1.10;19.40
480;DHT22;226;48.606;9.096;2023-02-28T05:11:18;-1.20;19.70
480;DHT22;226;48.606;9.096;2023-02-28T05:13:49;-1.10;19.90
480;DHT22;226;48.606;9.096;2023-02-28T05:16:17;-1.00;20.30
480;DHT22;226;48.606;9.096;2023-02-28T05:18:45;-1.20;20.40
480;DHT22;226;48.606;9.096;2023-02-28T05:21:28;-1.20;20.80
480;DHT22;226;48.606;9.096;2023-02-28T05:23:59;-1.20;21.60
480;DHT22;226;48.606;9.096;2023-02-28T05:26:27;-1.30;22.00
480;DHT22;226;48.606;9.096;2023-02-28T05:28:57;-1.30;22.00
480;DHT22;226;48.606;9.096;2023-02-28T05:31:25;-1.40;22.40
480;DHT22;226;48.606;9.096;2023-02-28T05:33:54;-1.30;23.50
480;DHT22;226;48.606;9.096;2023-02-28T05:36:23;-1.30;23.80
480;DHT22;226;48.606;9.096;2023-02-28T05:38:51;-1.30;23.40
480;DHT22;226;48.606;9.096;2023-02-28T05:41:22;-1.20;23.40
480;DHT22;226;48.606;9.096;2023-02-28T05:43:51;-1.20;25.60
480;DHT22;226;48.606;9.096;2023-02-28T05:46:20;-1.20;24.00
480;DHT22;226;48.606;9.096;2023-02-28T05:48:48;-1.20;23.60
480;DHT22;226;48.606;9.096;2023-02-28T05:51:17;-1.20;23.80
480;DHT22;226;48.606;9.096;2023-02-28T05:53:45;-1.10;23.80
480;DHT22;226;48.606;9.096;2023-02-28T05:56:15;-1.10;23.70
480;DHT22;226;48.606;9.096;2023-02-28T05:58:43;-1.20;35.90
480;DHT22;226;48.606;9.096;2023-02-28T06:01:30;-1.20;37.30
480;DHT22;226;48.606;9.096;2023-02-28T06:03:59;-1.20;30.40
480;DHT22;226;48.606;9.096;2023-02-28T06:06:28;-1.20;28.60
480;DHT22;226;48.606;9.096;2023-02-28T06:08:57;-1.10;33.10
480;DHT22;226;48.606;9.096;2023-02-28T06:11:25;-1.00;42.80
480;DHT22;226;48.606;9.096;2023-02-28T06:13:55;-1.00;40.80
480;DHT22;226;48.606;9.096;2023-02-28T06:16:25;-0.90;35.40
480;DHT22;226;48.606;9.096;2023-02-28T06:18:54;-1.20;33.50
480;DHT22;226;48.606;9.096;2023-02-28T06:21:24;-1.10;27.70
480;DHT22;226;48.606;9.096;2023-02-28T06:23:55;-1.10;26.50
480;DHT22;226;48.606;9.096;2023-02-28T06:26:24;-1.10;24.80
480;DHT22;226;48.606;9.096;2023-02-28T06:28:52;-1.10;24.20
480;DHT22;226;48.606;9.096;2023-02-28T06:31:21;-1.00;23.40
480;DHT22;226;48.606;9.096;2023-02-28T06:33:50;-1.10;23.30
480;DHT22;226;48.606;9.096;2023-02-28T06:36:19;-1.00;22.70
480;DHT22;226;48.606;9.096;2023-02-28T06:38:47;-1.20;23.10
480;DHT22;226;48.606;9.096;2023-02-28T06:41:18;-0.90;22.60
480;DHT22;226;48.606;9.096;2023-02-28T06:43:46;-0.80;22.70
480;DHT22;226;48.606;9.096;2023-02-28T06:46:14;-0.90;22.30
480;DHT22;226;48.606;9.096;2023-02-28T06:48:43;-0.80;22.40
480;DHT22;226;48.606;9.096;2023-02-28T06:51:15;-1.40;21.60
480;DHT22;226;48.606;9.096;2023-02-28T06:53:43;-0.70;21.90
480;DHT22;226;48.606;9.096;2023-02-28T06:56:13;-0.80;21.90
480;DHT22;226;48.606;9.096;2023-02-28T06:58:41;-0.70;21.50
480;DHT22;226;48.606;9.096;2023-02-28T07:01:10;-0.50;21.90
480;DHT22;226;48.606;9.096;2023-02-28T07:03:38;-0.90;21.90
480;DHT22;226;48.606;9.096;2023-02-28T07:06:06;-0.70;21.90
480;DHT22;226;48.606;9.096;2023-02-28T07:08:36;-0.70;21.80
480;DHT22;226;48.606;9.096;2023-02-28T07:11:04;-0.70;21.80
480;DHT22;226;48.606;9.096;2023-02-28T07:13:32;-0.70;21.30
480;DHT22;226;48.606;9.096;2023-02-28T07:16:02;-0.60;20.60
480;DHT22;226;48.606;9.096;2023-02-28T07:18:31;-0.80;20.70
480;DHT22;226;48.606;9.096;2023-02-28T07:21:02;-0.50;20.70
480;DHT22;226;48.606;9.096;2023-02-28T07:23:30;-0.50;19.60
480;DHT22;226;48.606;9.096;2023-02-28T07:25:59;-0.50;20.50
480;DHT22;226;48.606;9.096;2023-02-28T07:28:28;-0.60;20.20
480;DHT22;226;48.606;9.096;2023-02-28T07:30:56;-0.50;19.60
480;DHT22;226;48.606;9.096;2023-02-28T07:33:24;0.10;19.90
480;DHT22;226;48.606;9.096;2023-02-28T07:35:56;-0.50;19.80
480;DHT22;226;48.606;9.096;2023-02-28T07:38:27;-0.50;19.90
480;DHT22;226;48.606;9.096;2023-02-28T07:40:55;-0.40;19.40
480;DHT22;226;48.606;9.096;2023-02-28T07:43:25;-0.40;19.70
480;DHT22;226;48.606;9.096;2023-02-28T07:45:53;-0.40;19.60
480;DHT22;226;48.606;9.096;2023-02-28T07:48:21;-0.40;19.70
480;DHT22;226;48.606;9.096;2023-02-28T07:50:54;1.10;20.50
480;DHT22;226;48.606;9.096;2023-02-28T07:53:23;-0.40;18.90
480;DHT22;226;48.606;9.096;2023-02-28T07:55:51;-0.40;19.60
480;DHT22;226;48.606;9.096;2023-02-28T07:58:22;-0.50;19.10
480;DHT22;226;48.606;9.096;2023-02-28T08:00:52;-0.40;19.20
480;DHT22;226;48.606;9.096;2023-02-28T08:03:22;-0.70;18.80
480;DHT22;226;48.606;9.096;2023-02-28T08:05:51;-0.30;19.20
480;DHT22;226;48.606;9.096;2023-02-28T08:08:20;-0.30;17.70
480;DHT22;226;48.606;9.096;2023-02-28T08:10:48;-0.30;18.10
480;DHT22;226;48.606;9.096;2023-02-28T08:13:16;-0.20;18.10
480;DHT22;226;48.606;9.096;2023-02-28T08:15:44;-0.10;17.60
480;DHT22;226;48.606;9.096;2023-02-28T08:18:15;-0.20;17.40
480;DHT22;226;48.606;9.096;2023-02-28T08:20:43;0.10;18.00
480;DHT22;226;48.606;9.096;2023-02-28T08:23:11;0.20;17.70
480;DHT22;226;48.606;9.096;2023-02-28T08:25:39;0.30;17.60
480;DHT22;226;48.606;9.096;2023-02-28T08:28:08;0.20;16.80
480;DHT22;226;48.606;9.096;2023-02-28T08:30:36;0.30;16.80
480;DHT22;226;48.606;9.096;2023-02-28T08:33:04;0.20;16.20
480;DHT22;226;48.606;9.096;2023-02-28T08:35:35;1.70;17.50
480;DHT22;226;48.606;9.096;2023-02-28T08:38:04;0.20;16.00
480;DHT22;226;48.606;9.096;2023-02-28T08:40:32;0.40;16.30
480;DHT22;226;48.606;9.096;2023-02-28T08:43:00;0.50;15.60
480;DHT22;226;48.606;9.096;2023-02-28T08:45:28;1.30;15.30
480;DHT22;226;48.606;9.096;2023-02-28T08:47:56;0.70;14.90
480;DHT22;226;48.606;9.096;2023-02-28T08:50:24;0.60;15.10
480;DHT22;226;48.606;9.096;2023-02-28T08:52:54;0.90;16.10
480;DHT22;226;48.606;9.096;2023-02-28T08:55:22;1.00;14.80
480;DHT22;226;48.606;9.096;2023-02-28T08:57:50;1.00;14.10
480;DHT22;226;48.606;9.096;2023-02-28T09:00:20;0.90;14.20
480;DHT22;226;48.606;9.096;2023-02-28T09:02:48;0.80;13.30
480;DHT22;226;48.606;9.096;2023-02-28T09:05:16;0.70;13.90
480;DHT22;226;48.606;9.096;2023-02-28T09:07:44;0.70;14.00
480;DHT22;226;48.606;9.096;2023-02-28T09:10:14;0.90;13.90
480;DHT22;226;48.606;9.096;2023-02-28T09:12:42;0.60;13.60
480;DHT22;226;48.606;9.096;2023-02-28T09:15:12;0.60;14.10
480;DHT22;226;48.606;9.096;2023-02-28T09:17:40;0.50;14.00
480;DHT22;226;48.606;9.096;2023-02-28T09:20:12;0.60;14.60
480;DHT22;226;48.606;9.096;2023-02-28T09:22:40;0.80;13.30
480;DHT22;226;48.606;9.096;2023-02-28T09:25:08;1.00;13.70
480;DHT22;226;48.606;9.096;2023-02-28T09:27:38;0.80;13.00
480;DHT22;226;48.606;9.096;2023-02-28T09:30:09;0.90;12.90
480;DHT22;226;48.606;9.096;2023-02-28T09:32:37;0.80;13.00
480;DHT22;226;48.606;9.096;2023-02-28T09:35:06;0.80;13.10
480;DHT22;226;48.606;9.096;2023-02-28T09:37:39;0.80;12.80
480;DHT22;226;48.606;9.096;2023-02-28T09:40:09;0.90;12.40
480;DHT22;226;48.606;9.096;2023-02-28T09:42:39;1.10;12.50
480;DHT22;226;48.606;9.096;2023-02-28T09:45:16;1.20;12.20
480;DHT22;226;48.606;9.096;2023-02-28T09:47:48;1.20;12.20
480;DHT22;226;48.606;9.096;2023-02-28T09:50:26;1.40;11.50
480;DHT22;226;48.606;9.096;2023-02-28T09:52:56;1.30;11.70
480;DHT22;226;48.606;9.096;2023-02-28T09:55:29;1.50;11.80
480;DHT22;226;48.606;9.096;2023-02-28T09:58:15;1.60;10.90
480;DHT22;226;48.606;9.096;2023-02-28T10:00:51;1.60;10.10
480;DHT22;226;48.606;9.096;2023-02-28T10:03:28;1.20;10.80
480;DHT22;226;48.606;9.096;2023-02-28T10:06:02;1.30;10.90
480;DHT22;226;48.606;9.096;2023-02-28T10:08:37;1.30;10.90
480;DHT22;226;48.606;9.096;2023-02-28T10:11:11;1.30;10.70
480;DHT22;226;48.606;9.096;2023-02-28T10:13:52;1.20;10.60
480;DHT22;226;48.606;9.096;2023-02-28T10:16:26;1.30;10.80
480;DHT22;226;48.606;9.096;2023-02-28T10:19:02;1.40;10.00
480;DHT22;226;48.606;9.096;2023-02-28T10:21:35;1.20;10.90
480;DHT22;226;48.606;9.096;2023-02-28T10:24:11;1.50;11.40
480;DHT22;226;48.606;9.096;2023-02-28T10:26:43;1.30;10.40
480;DHT22;226;48.606;9.096;2023-02-28T10:29:14;1.50;10.60
480;DHT22;226;48.606;9.096;2023-02-28T10:31:43;1.30;10.70
480;DHT22;226;48.606;9.096;2023-02-28T10:34:12;1.50;10.20
480;DHT22;226;48.606;9.096;2023-02-28T10:36:42;1.50;10.60
480;DHT22;226;48.606;9.096;2023-02-28T10:39:36;1.50;9.70
480;DHT22;226;48.606;9.096;2023-02-28T10:42:18;1.50;10.60
480;DHT22;226;48.606;9.096;2023-02-28T10:44:48;1.70;10.30
480;DHT22;226;48.606;9.096;2023-02-28T10:47:17;1.80;9.30
480;DHT22;226;48.606;9.096;2023-02-28T10:49:48;2.00;9.70
480;DHT22;226;48.606;9.096;2023-02-28T10:52:33;2.20;8.80
480;DHT22;226;48.606;9.096;2023-02-28T10:55:20;2.40;8.60
480;DHT22;226;48.606;9.096;2023-02-28T10:57:49;2.50;7.70
480;DHT22;226;48.606;9.096;2023-02-28T11:00:21;2.60;7.40
480;DHT22;226;48.606;9.096;2023-02-28T11:02:52;2.60;7.40
480;DHT22;226;48.606;9.096;2023-02-28T11:05:28;2.40;8.10
480;DHT22;226;48.606;9.096;2023-02-28T11:08:10;2.20;7.80
480;DHT22;226;48.606;9.096;2023-02-28T11:10:43;2.00;8.40
480;DHT22;226;48.606;9.096;2023-02-28T11:13:17;2.00;8.80
480;DHT22;226;48.606;9.096;2023-02-28T11:15:52;2.10;8.70
480;DHT22;226;48.606;9.096;2023-02-28T11:18:24;2.20;8.20
480;DHT22;226;48.606;9.096;2023-02-28T11:20:55;2.40;7.70
480;DHT22;226;48.606;9.096;2023-02-28T11:23:26;2.40;7.90
480;DHT22;226;48.606;9.096;2023-02-28T11:25:57;2.40;7.90
480;DHT22;226;48.606;9.096;2023-02-28T11:28:28;2.60;8.20
480;DHT22;226;48.606;9.096;2023-02-28T11:31:04;2.70;7.40
480;DHT22;226;48.606;9.096;2023-02-28T11:33:41;2.70;7.40
480;DHT22;226;48.606;9.096;2023-02-28T11:36:13;2.70;7.40
480;DHT22;226;48.606;9.096;2023-02-28T11:38:43;2.80;7.50
480;DHT22;226;48.606;9.096;2023-02-28T11:41:32;3.00;7.00
480;DHT22;226;48.606;9.096;2023-02-28T11:44:17;3.20;6.70
480;DHT22;226;48.606;9.096;2023-02-28T11:46:52;3.30;6.50
480;DHT22;226;48.606;9.096;2023-02-28T11:49:31;3.40;6.10
480;DHT22;226;48.606;9.096;2023-02-28T11:52:06;3.50;5.80
480;DHT22;226;48.606;9.096;2023-02-28T11:54:59;3.40;6.10
480;DHT22;226;48.606;9.096;2023-02-28T11:57:36;3.30;6.60
480;DHT22;226;48.606;9.096;2023-02-28T12:00:19;3.20;6.20
480;DHT22;226;48.606;9.096;2023-02-28T12:03:03;3.10;6.30
480;DHT22;226;48.606;9.096;2023-02-28T12:05:36;3.00;6.60
480;DHT22;226;48.606;9.096;2023-02-28T12:08:22;3.00;6.40
480;DHT22;226;48.606;9.096;2023-02-28T12:11:01;3.20;6.80
480;DHT22;226;48.606;9.096;2023-02-28T12:13:40;3.20;6.30
480;DHT22;226;48.606;9.096;2023-02-28T12:16:37;3.30;6.50
480;DHT22;226;48.606;9.096;2023-02-28T12:19:18;3.30;6.50
480;DHT22;226;48.606;9.096;2023-02-28T12:22:12;3.30;6.50
480;DHT22;226;48.606;9.096;2023-02-28T12:25:02;3.20;6.30
480;DHT22;226;48.606;9.096;2023-02-28T12:27:37;3.30;6.70
480;DHT22;226;48.606;9.096;2023-02-28T12:30:14;3.70;8.80
480;DHT22;226;48.606;9.096;2023-02-28T12:32:47;4.00;9.90
480;DHT22;226;48.606;9.096;2023-02-28T12:35:21;4.50;10.00
480;DHT22;226;48.606;9.096;2023-02-28T12:37:53;4.20;10.40
480;DHT22;226;48.606;9.096;2023-02-28T12:40:27;4.30;9.80
480;DHT22;226;48.606;9.096;2023-02-28T12:42:59;4.40;9.70
480;DHT22;226;48.606;9.096;2023-02-28T12:45:39;4.20;8.50
480;DHT22;226;48.606;9.096;2023-02-28T12:48:10;4.20;9.40
480;DHT22;226;48.606;9.096;2023-02-28T12:50:43;4.10;7.50
480;DHT22;226;48.606;9.096;2023-02-28T12:53:17;4.10;6.00
480;DHT22;226;48.606;9.096;2023-02-28T12:55:52;4.10;5.30
480;DHT22;226;48.606;9.096;2023-02-28T12:58:30;3.80;5.90
480;DHT22;226;48.606;9.096;2023-02-28T13:01:23;4.00;6.40
480;DHT22;226;48.606;9.096;2023-02-28T13:07:35;4.20;5.50
480;DHT22;226;48.606;9.096;2023-02-28T13:10:10;4.10;5.80
480;DHT22;226;48.606;9.096;2023-02-28T13:12:48;4.10;6.20
480;DHT22;226;48.606;9.096;2023-02-28T13:15:19;3.90;5.80
480;DHT22;226;48.606;9.096;2023-02-28T13:17:53;3.90;5.60
480;DHT22;226;48.606;9.096;2023-02-28T13:20:24;4.20;6.00
480;DHT22;226;48.606;9.096;2023-02-28T13:22:55;4.20;5.20
480;DHT22;226;48.606;9.096;2023-02-28T13:25:51;4.40;5.40
480;DHT22;226;48.606;9.096;2023-02-28T13:38:23;4.60;5.80
480;DHT22;226;48.606;9.096;2023-02-28T13:40:51;4.70;5.10
480;DHT22;226;48.606;9.096;2023-02-28T13:43:19;4.80;5.50
480;DHT22;226;48.606;9.096;2023-02-28T13:46:11;4.70;5.80
480;DHT22;226;48.606;9.096;2023-02-28T13:48:41;4.80;6.20
480;DHT22;226;48.606;9.096;2023-02-28T13:51:39;5.00;9.10
480;DHT22;226;48.606;9.096;2023-02-28T13:54:27;5.10;8.30
480;DHT22;226;48.606;9.096;2023-02-28T13:57:10;5.30;8.90
480;DHT22;226;48.606;9.096;2023-02-28T13:59:47;5.50;10.30
480;DHT22;226;48.606;9.096;2023-02-28T14:02:41;5.90;21.40
480;DHT22;226;48.606;9.096;2023-02-28T14:05:14;6.00;20.90
480;DHT22;226;48.606;9.096;2023-02-28T14:07:46;6.40;20.50
480;DHT22;226;48.606;9.096;2023-02-28T14:13:03;7.70;30.10
480;DHT22;226;48.606;9.096;2023-02-28T14:15:46;7.40;27.30
480;DHT22;226;48.606;9.096;2023-02-28T14:18:22;7.70;28.00
480;DHT22;226;48.606;9.096;2023-02-28T14:20:57;7.60;28.00
480;DHT22;226;48.606;9.096;2023-02-28T14:23:39;7.70;27.10
480;DHT22;226;48.606;9.096;2023-02-28T14:26:25;8.20;26.10
480;DHT22;226;48.606;9.096;2023-02-28T14:29:09;8.50;28.90
480;DHT22;226;48.606;9.096;2023-02-28T14:31:45;8.70;26.10
480;DHT22;226;48.606;9.096;2023-02-28T14:34:29;9.00;15.80
480;DHT22;226;48.606;9.096;2023-02-28T14:37:01;9.20;16.90
480;DHT22;226;48.606;9.096;2023-02-28T14:39:31;9.60;21.40
480;DHT22;226;48.606;9.096;2023-02-28T14:42:00;10.10;17.90
480;DHT22;226;48.606;9.096;2023-02-28T14:44:32;10.20;16.50
480;DHT22;226;48.606;9.096;2023-02-28T14:47:01;8.90;19.40
480;DHT22;226;48.606;9.096;2023-02-28T14:49:36;9.50;31.60
480;DHT22;226;48.606;9.096;2023-02-28T14:52:09;9.50;34.00
480;DHT22;226;48.606;9.096;2023-02-28T14:54:42;9.90;29.20
480;DHT22;226;48.606;9.096;2023-02-28T14:57:22;10.50;19.50
480;DHT22;226;48.606;9.096;2023-02-28T15:00:01;10.40;19.60
480;DHT22;226;48.606;9.096;2023-02-28T15:02:34;10.70;17.60
480;DHT22;226;48.606;9.096;2023-02-28T15:23:04;9.30;31.30
480;DHT22;226;48.606;9.096;2023-02-28T15:25:34;9.10;27.90
480;DHT22;226;48.606;9.096;2023-02-28T15:28:02;9.00;28.30
480;DHT22;226;48.606;9.096;2023-02-28T15:33:17;7.60;19.70
480;DHT22;226;48.606;9.096;2023-02-28T15:35:46;7.60;17.60
480;DHT22;226;48.606;9.096;2023-02-28T15:38:17;7.50;19.10
480;DHT22;226;48.606;9.096;2023-02-28T15:40:50;7.60;20.20
480;DHT22;226;48.606;9.096;2023-02-28T15:43:26;7.80;20.40
480;DHT22;226;48.606;9.096;2023-02-28T15:45:58;7.90;19.10
480;DHT22;226;48.606;9.096;2023-02-28T15:48:29;8.30;13.50
480;DHT22;226;48.606;9.096;2023-02-28T15:51:05;8.30;10.60
480;DHT22;226;48.606;9.096;2023-02-28T15:53:36;8.80;9.80
480;DHT22;226;48.606;9.096;2023-02-28T15:56:20;8.90;11.40
480;DHT22;226;48.606;9.096;2023-02-28T15:58:49;8.70;10.90
480;DHT22;226;48.606;9.096;2023-02-28T16:01:24;8.10;19.10
480;DHT22;226;48.606;9.096;2023-02-28T16:03:55;7.90;22.40
480;DHT22;226;48.606;9.096;2023-02-28T16:06:37;7.90;2.10
480;DHT22;226;48.606;9.096;2023-02-28T16:11:40;7.30;36.60
480;DHT22;226;48.606;9.096;2023-02-28T16:14:15;6.90;37.40
480;DHT22;226;48.606;9.096;2023-02-28T16:16:44;6.70;37.80
480;DHT22;226;48.606;9.096;2023-02-28T16:21:44;6.10;38.90
480;DHT22;226;48.606;9.096;2023-02-28T16:24:14;5.70;38.80
480;DHT22;226;48.606;9.096;2023-02-28T16:26:46;5.70;38.20
480;DHT22;226;48.606;9.096;2023-02-28T16:29:21;5.60;38.70
480;DHT22;226;48.606;9.096;2023-02-28T16:31:51;5.40;38.00
480;DHT22;226;48.606;9.096;2023-02-28T16:34:20;5.50;39.60
480;DHT22;226;48.606;9.096;2023-02-28T16:36:49;5.30;38.90
480;DHT22;226;48.606;9.096;2023-02-28T16:39:18;5.10;38.30
480;DHT22;226;48.606;9.096;2023-02-28T16:41:49;5.00;37.30
480;DHT22;226;48.606;9.096;2023-02-28T16:44:26;4.90;37.40
480;DHT22;226;48.606;9.096;2023-02-28T16:46:54;5.10;38.90
480;DHT22;226;48.606;9.096;2023-02-28T16:49:23;4.70;38.10
480;DHT22;226;48.606;9.096;2023-02-28T16:51:51;4.70;37.80
480;DHT22;226;48.606;9.096;2023-02-28T16:54:19;4.70;38.80
480;DHT22;226;48.606;9.096;2023-02-28T16:56:49;4.60;38.40
480;DHT22;226;48.606;9.096;2023-02-28T16:59:21;4.60;39.30
480;DHT22;226;48.606;9.096;2023-02-28T17:01:50;4.60;39.70
480;DHT22;226;48.606;9.096;2023-02-28T17:04:18;4.40;39.00
480;DHT22;226;48.606;9.096;2023-02-28T17:06:47;4.40;38.50
480;DHT22;226;48.606;9.096;2023-02-28T17:09:17;4.20;38.30
480;DHT22;226;48.606;9.096;2023-02-28T17:11:45;4.20;39.00
480;DHT22;226;48.606;9.096;2023-02-28T17:14:15;4.10;39.60
480;DHT22;226;48.606;9.096;2023-02-28T17:16:44;4.00;40.20
480;DHT22;226;48.606;9.096;2023-02-28T17:19:14;4.10;42.70
480;DHT22;226;48.606;9.096;2023-02-28T17:21:42;3.80;41.60
480;DHT22;226;48.606;9.096;2023-02-28T17:24:11;3.80;42.70
480;DHT22;226;48.606;9.096;2023-02-28T17:26:45;3.70;41.80
480;DHT22;226;48.606;9.096;2023-02-28T17:29:16;3.70;43.20
480;DHT22;226;48.606;9.096;2023-02-28T17:31:45;3.70;42.80
480;DHT22;226;48.606;9.096;2023-02-28T17:34:13;3.60;27.80
480;DHT22;226;48.606;9.096;2023-02-28T17:36:45;3.60;29.10
480;DHT22;226;48.606;9.096;2023-02-28T17:39:14;3.50;29.10
480;DHT22;226;48.606;9.096;2023-02-28T17:41:46;3.40;28.50
480;DHT22;226;48.606;9.096;2023-02-28T17:44:15;3.40;28.60
480;DHT22;226;48.606;9.096;2023-02-28T17:46:45;3.30;29.10
480;DHT22;226;48.606;9.096;2023-02-28T17:49:13;3.30;29.20
480;DHT22;226;48.606;9.096;2023-02-28T17:51:41;3.30;29.20
480;DHT22;226;48.606;9.096;2023-02-28T17:54:09;3.20;29.20
480;DHT22;226;48.606;9.096;2023-02-28T17:56:38;3.20;29.60
480;DHT22;226;48.606;9.096;2023-02-28T17:59:08;3.20;29.90
480;DHT22;226;48.606;9.096;2023-02-28T18:01:38;3.20;29.10
480;DHT22;226;48.606;9.096;2023-02-28T18:04:06;3.10;29.00
480;DHT22;226;48.606;9.096;2023-02-28T18:06:36;3.00;29.70